createdAt,value
2019-02-25T00:00:37.501Z,0.58
2019-02-25T00:03:09.426Z,0.48
2019-02-25T00:05:39.766Z,0.31
2019-02-25T00:08:10.032Z,0.22
2019-02-25T00:10:40.291Z,0.11
2019-02-25T00:13:10.604Z,0.06
2019-02-25T00:15:40.847Z,0.01
2019-02-25T00:18:11.382Z,-0.12
2019-02-25T00:20:41.725Z,-0.29
2019-02-25T00:23:13.067Z,-0.38
2019-02-25T00:25:43.357Z,-0.37
2019-02-25T00:28:13.618Z,-0.36
2019-02-25T00:30:44.150Z,-0.38
2019-02-25T00:33:14.490Z,-0.40
2019-02-25T00:35:45.014Z,-0.38
2019-02-25T00:38:15.290Z,-0.35
2019-02-25T00:40:45.558Z,-0.40
2019-02-25T00:43:15.854Z,-0.44
2019-02-25T00:45:46.114Z,-0.50
2019-02-25T00:48:16.389Z,-0.61
2019-02-25T00:50:46.670Z,-0.75
2019-02-25T00:53:16.921Z,-0.88
2019-02-25T00:55:47.248Z,-1.01
2019-02-25T00:58:17.523Z,-1.08
2019-02-25T01:00:47.786Z,-1.10
2019-02-25T01:03:18.052Z,-1.01
2019-02-25T01:05:48.316Z,-0.93
2019-02-25T01:08:18.610Z,-0.65
2019-02-25T01:10:48.892Z,-0.58
2019-02-25T01:13:19.239Z,-0.56
2019-02-25T01:15:49.549Z,-0.56
2019-02-25T01:18:19.814Z,-0.62
2019-02-25T01:20:50.079Z,-0.54
2019-02-25T01:23:20.337Z,-0.63
2019-02-25T01:25:50.860Z,-0.74
2019-02-25T01:28:22.213Z,-0.79
2019-02-25T01:30:52.478Z,-0.65
2019-02-25T01:33:22.766Z,-0.44
2019-02-25T01:35:53.023Z,-0.47
2019-02-25T01:38:24.253Z,-0.38
2019-02-25T01:40:54.535Z,-0.38
2019-02-25T01:43:25.889Z,-0.30
2019-02-25T01:45:56.219Z,-0.26
2019-02-25T01:48:26.502Z,-0.19
2019-02-25T01:50:56.736Z,-0.21
2019-02-25T01:53:27.876Z,-0.21
2019-02-25T01:55:58.170Z,-0.24
2019-02-25T01:58:28.456Z,-0.26
2019-02-25T02:00:58.727Z,-0.25
2019-02-25T02:03:29.012Z,-0.27
2019-02-25T02:05:59.290Z,-0.23
2019-02-25T02:08:29.541Z,-0.21
2019-02-25T02:10:59.800Z,-0.17
2019-02-25T02:13:30.113Z,-0.15
2019-02-25T02:16:01.893Z,-0.06
2019-02-25T02:18:32.138Z,-0.10
2019-02-25T02:21:02.399Z,-0.13
2019-02-25T02:23:34.765Z,-0.18
2019-02-25T02:26:05.031Z,-0.24
2019-02-25T02:28:35.298Z,-0.32
2019-02-25T02:31:05.749Z,-0.38
2019-02-25T02:33:36.023Z,-0.39
2019-02-25T02:36:06.274Z,-0.41
2019-02-25T02:38:36.535Z,-0.40
2019-02-25T02:41:06.808Z,-0.40
2019-02-25T02:43:37.955Z,-0.40
2019-02-25T02:46:14.378Z,-0.36
2019-02-25T02:48:50.906Z,-0.24
2019-02-25T02:51:21.184Z,-0.27
2019-02-25T02:56:27.514Z,-0.18
2019-02-25T02:58:57.771Z,-0.18
2019-02-25T03:01:28.047Z,-0.21
2019-02-25T03:03:58.378Z,-0.20
2019-02-25T03:06:28.655Z,-0.16
2019-02-25T03:08:59.180Z,-0.08
2019-02-25T03:11:29.441Z,-0.10
2019-02-25T03:13:59.711Z,-0.13
2019-02-25T03:16:30.253Z,-0.19
2019-02-25T03:19:00.530Z,-0.24
2019-02-25T03:21:30.820Z,-0.34
2019-02-25T03:24:01.109Z,-0.39
2019-02-25T03:26:31.385Z,-0.40
2019-02-25T03:29:03.740Z,-0.42
2019-02-25T03:31:34.018Z,-0.40
2019-02-25T03:34:04.339Z,-0.47
2019-02-25T03:36:34.585Z,-0.51
2019-02-25T03:39:06.999Z,-0.55
2019-02-25T03:41:37.271Z,-0.57
2019-02-25T03:44:08.462Z,-0.55
2019-02-25T03:46:38.720Z,-0.58
2019-02-25T03:49:09.014Z,-0.53
2019-02-25T03:51:39.268Z,-0.52
2019-02-25T03:54:09.548Z,-0.52
2019-02-25T03:56:39.803Z,-0.55
2019-02-25T03:59:10.070Z,-0.60
2019-02-25T04:01:40.341Z,-0.60
2019-02-25T04:04:10.626Z,-0.64
2019-02-25T04:06:40.881Z,-0.66
2019-02-25T04:09:11.157Z,-0.69
2019-02-25T04:11:41.406Z,-0.69
2019-02-25T04:14:11.674Z,-0.66
2019-02-25T04:16:42.114Z,-0.66
2019-02-25T04:19:12.417Z,-0.64
2019-02-25T04:21:42.645Z,-0.63
2019-02-25T04:24:12.907Z,-0.60
2019-02-25T04:26:43.169Z,-0.60
2019-02-25T04:29:13.453Z,-0.59
2019-02-25T04:31:43.718Z,-0.64
2019-02-25T04:34:14.018Z,-0.64
2019-02-25T04:36:44.266Z,-0.67
2019-02-25T04:39:14.539Z,-0.68
2019-02-25T04:41:44.794Z,-0.66
2019-02-25T04:44:15.890Z,-0.65
2019-02-25T04:46:46.141Z,-0.66
2019-02-25T04:49:16.414Z,-0.60
2019-02-25T04:51:46.671Z,-0.64
2019-02-25T04:54:16.945Z,-0.58
2019-02-25T04:56:47.203Z,-0.58
2019-02-25T04:59:17.484Z,-0.58
2019-02-25T05:01:47.758Z,-0.59
2019-02-25T05:04:18.025Z,-0.57
2019-02-25T05:06:48.285Z,-0.61
2019-02-25T05:09:18.580Z,-0.63
2019-02-25T05:11:48.841Z,-0.61
2019-02-25T05:14:19.127Z,-0.64
2019-02-25T05:16:49.388Z,-0.71
2019-02-25T05:19:19.664Z,-0.87
2019-02-25T05:21:49.929Z,-0.81
2019-02-25T05:24:20.202Z,-0.82
2019-02-25T05:26:50.478Z,-0.90
2019-02-25T05:29:20.755Z,-0.94
2019-02-25T05:31:51.012Z,-1.10
2019-02-25T05:34:21.304Z,-1.31
2019-02-25T05:36:51.561Z,-1.37
2019-02-25T05:39:21.848Z,-1.36
2019-02-25T05:41:52.143Z,-1.36
2019-02-25T05:44:23.258Z,-1.36
2019-02-25T05:46:53.516Z,-1.34
2019-02-25T05:49:24.058Z,-1.28
2019-02-25T05:51:54.320Z,-1.19
2019-02-25T05:54:24.620Z,-1.14
2019-02-25T05:56:54.911Z,-1.13
2019-02-25T05:59:25.207Z,-1.12
2019-02-25T06:01:55.460Z,-1.09
2019-02-25T06:04:25.730Z,-1.10
2019-02-25T06:06:55.987Z,-1.04
2019-02-25T06:09:26.269Z,-0.97
2019-02-25T06:11:56.531Z,-0.94
2019-02-25T06:14:26.901Z,-0.89
2019-02-25T06:16:57.157Z,-0.93
2019-02-25T06:19:27.453Z,-0.90
2019-02-25T06:21:57.698Z,-0.93
2019-02-25T06:24:29.041Z,-0.87
2019-02-25T06:26:59.331Z,-0.78
2019-02-25T06:29:29.609Z,-0.70
2019-02-25T06:31:59.862Z,-0.62
2019-02-25T06:34:30.151Z,-0.58
2019-02-25T06:37:00.512Z,-0.54
2019-02-25T06:39:30.797Z,-0.48
2019-02-25T06:42:01.078Z,-0.43
2019-02-25T06:44:32.149Z,-0.36
2019-02-25T06:47:02.431Z,-0.28
2019-02-25T06:49:32.700Z,-0.16
2019-02-25T06:52:02.967Z,-0.01
2019-02-25T06:54:33.220Z,0.22
2019-02-25T06:57:03.514Z,0.43
2019-02-25T06:59:33.872Z,0.54
2019-02-25T07:02:04.171Z,0.65
2019-02-25T07:04:37.704Z,0.70
2019-02-25T07:07:18.482Z,0.74
2019-02-25T07:09:51.121Z,0.89
2019-02-25T07:12:25.960Z,1.13
2019-02-25T07:15:00.808Z,1.37
2019-02-25T07:17:35.650Z,1.77
2019-02-25T07:20:17.031Z,2.39
2019-02-25T07:22:57.922Z,2.97
2019-02-25T07:25:29.801Z,3.41
2019-02-25T07:28:07.409Z,3.94
2019-02-25T07:30:55.720Z,4.27
2019-02-25T07:33:33.320Z,4.71
2019-02-25T07:36:07.905Z,4.75
2019-02-25T07:38:42.513Z,4.61
2019-02-25T07:41:14.427Z,4.79
2019-02-25T07:43:55.357Z,4.83
2019-02-25T07:46:37.213Z,5.33
2019-02-25T07:49:23.929Z,5.69
2019-02-25T07:52:02.495Z,5.54
2019-02-25T07:54:34.411Z,5.78
2019-02-25T07:57:06.316Z,6.03
2019-02-25T07:59:39.869Z,6.58
2019-02-25T08:02:14.591Z,6.28
2019-02-25T08:04:46.514Z,6.25
2019-02-25T08:07:24.096Z,6.48
2019-02-25T08:09:59.253Z,6.88
2019-02-25T08:12:49.512Z,6.96
2019-02-25T08:15:30.127Z,7.20
2019-02-25T08:18:04.497Z,7.48
2019-02-25T08:20:36.385Z,7.58
2019-02-25T08:23:14.287Z,7.65
2019-02-25T08:25:54.900Z,7.88
2019-02-25T08:28:29.508Z,7.84
2019-02-25T08:31:01.401Z,8.12
2019-02-25T08:33:49.650Z,7.71
2019-02-25T08:37:01.967Z,8.25
2019-02-25T08:39:42.042Z,8.74
2019-02-25T08:42:22.981Z,9.07
2019-02-25T08:45:11.248Z,9.14
2019-02-25T08:47:49.890Z,10.06
2019-02-25T08:50:21.217Z,9.36
2019-02-25T08:52:51.474Z,9.78
2019-02-25T08:55:21.730Z,9.31
2019-02-25T08:57:52.003Z,9.94
2019-02-25T09:00:22.273Z,10.00
2019-02-25T09:02:52.619Z,10.13
2019-02-25T09:05:22.866Z,10.48
2019-02-25T09:07:53.143Z,10.76
2019-02-25T09:10:23.412Z,11.00
2019-02-25T09:12:53.670Z,10.82
2019-02-25T09:15:23.952Z,10.30
2019-02-25T09:17:53.279Z,11.06
2019-02-25T09:20:23.581Z,11.32
2019-02-25T09:22:53.840Z,11.21
2019-02-25T09:25:24.105Z,11.56
2019-02-25T09:27:54.390Z,11.55
2019-02-25T09:30:24.668Z,11.76
2019-02-25T09:32:54.926Z,11.94
2019-02-25T09:35:25.218Z,12.13
2019-02-25T09:37:55.504Z,12.20
2019-02-25T09:40:25.798Z,12.16
2019-02-25T09:42:56.076Z,12.50
2019-02-25T09:45:26.348Z,12.57
2019-02-25T09:47:56.609Z,13.62
2019-02-25T09:50:26.893Z,13.24
2019-02-25T09:52:57.151Z,13.78
2019-02-25T09:55:27.447Z,13.02
2019-02-25T09:57:57.705Z,13.40
2019-02-25T10:00:27.990Z,12.85
2019-02-25T10:02:58.263Z,13.61
2019-02-25T10:05:28.551Z,14.63
2019-02-25T10:07:58.827Z,15.16
2019-02-25T10:10:29.129Z,15.53
2019-02-25T10:12:59.373Z,15.16
2019-02-25T10:15:29.726Z,15.34
2019-02-25T10:18:00.010Z,14.35
2019-02-25T10:20:30.329Z,15.19
2019-02-25T10:23:00.589Z,15.98
2019-02-25T10:25:30.865Z,15.72
2019-02-25T10:28:01.149Z,16.90
2019-02-25T10:30:31.472Z,15.85
2019-02-25T10:33:01.769Z,15.66
2019-02-25T10:35:33.105Z,15.46
2019-02-25T10:38:03.363Z,14.07
2019-02-25T10:40:33.635Z,15.03
2019-02-25T10:43:03.922Z,14.70
2019-02-25T10:45:35.247Z,15.09
2019-02-25T10:48:07.097Z,17.01
2019-02-25T10:50:38.655Z,15.48
2019-02-25T10:53:10.975Z,15.38
2019-02-25T10:55:48.823Z,15.81
2019-02-25T10:58:18.781Z,16.32
2019-02-25T11:00:49.061Z,15.20
2019-02-25T11:03:19.940Z,15.84
2019-02-25T11:05:51.770Z,15.83
2019-02-25T11:08:24.401Z,16.49
2019-02-25T11:11:02.489Z,14.91
2019-02-25T11:13:34.611Z,15.86
2019-02-25T11:16:04.847Z,15.23
2019-02-25T11:18:35.148Z,13.47
2019-02-25T11:21:06.175Z,13.42
2019-02-25T11:23:37.408Z,13.09
2019-02-25T11:26:09.285Z,13.02
2019-02-25T11:28:41.247Z,12.60
2019-02-25T11:31:12.191Z,13.52
2019-02-25T11:33:42.461Z,13.89
2019-02-25T11:36:14.904Z,12.93
2019-02-25T11:38:44.708Z,13.39
2019-02-25T11:41:14.996Z,14.46
2019-02-25T11:43:46.408Z,13.91
2019-02-25T11:46:17.231Z,14.78
2019-02-25T11:48:47.496Z,15.32
2019-02-25T11:51:17.788Z,14.78
2019-02-25T11:53:48.112Z,14.69
2019-02-25T11:56:18.400Z,14.68
2019-02-25T11:58:48.669Z,14.43
2019-02-25T12:01:18.943Z,14.70
2019-02-25T12:03:49.227Z,13.64
2019-02-25T12:06:19.520Z,13.48
2019-02-25T12:08:49.789Z,13.50
2019-02-25T12:11:20.057Z,13.00
2019-02-25T12:13:50.323Z,12.97
2019-02-25T12:16:21.780Z,12.86
2019-02-25T12:18:52.162Z,12.35
2019-02-25T12:21:22.437Z,12.30
2019-02-25T12:23:53.712Z,12.30
2019-02-25T12:26:23.980Z,12.44
2019-02-25T12:28:54.239Z,12.45
2019-02-25T12:31:24.508Z,12.27
2019-02-25T12:33:54.774Z,12.62
2019-02-25T12:36:25.138Z,12.67
2019-02-25T12:38:55.398Z,12.76
2019-02-25T12:41:27.249Z,12.65
2019-02-25T12:43:57.714Z,12.71
2019-02-25T12:46:27.998Z,12.71
2019-02-25T12:49:00.527Z,12.61
2019-02-25T12:51:30.808Z,12.56
2019-02-25T12:54:01.069Z,12.70
2019-02-25T12:56:31.353Z,12.52
2019-02-25T12:59:01.603Z,12.58
2019-02-25T13:01:31.917Z,12.75
2019-02-25T13:04:02.178Z,12.80
2019-02-25T13:06:32.457Z,12.64
2019-02-25T13:09:02.732Z,12.56
2019-02-25T13:11:34.663Z,12.73
2019-02-25T13:14:04.913Z,12.69
2019-02-25T13:16:35.189Z,12.62
2019-02-25T13:19:05.445Z,12.57
2019-02-25T13:21:35.706Z,12.69
2019-02-25T13:24:07.477Z,12.51
2019-02-25T13:26:39.449Z,12.69
2019-02-25T13:29:09.803Z,12.98
2019-02-25T13:31:40.086Z,13.00
2019-02-25T13:34:10.340Z,13.13
2019-02-25T13:36:40.615Z,12.90
2019-02-25T13:39:10.887Z,12.77
2019-02-25T13:41:41.439Z,12.97
2019-02-25T13:44:11.694Z,12.79
2019-02-25T13:46:43.017Z,12.75
2019-02-25T13:49:14.999Z,12.93
2019-02-25T13:51:45.412Z,12.71
2019-02-25T13:54:17.876Z,13.13
2019-02-25T13:56:49.206Z,13.43
2019-02-25T13:59:19.529Z,13.31
2019-02-25T14:01:49.818Z,13.36
2019-02-25T14:34:09.477Z,13.27
2019-02-25T14:36:39.740Z,13.25
2019-02-25T14:39:18.535Z,13.14
2019-02-25T14:46:04.827Z,13.31
2019-02-25T14:48:36.433Z,13.14
2019-02-25T14:51:08.746Z,13.22
2019-02-25T14:53:39.169Z,13.24
2019-02-25T14:56:10.146Z,13.04
2019-02-25T14:58:41.140Z,13.04
2019-02-25T15:01:13.979Z,12.80
2019-02-25T15:03:44.401Z,12.64
2019-02-25T15:06:14.639Z,12.68
2019-02-25T15:08:44.955Z,12.61
2019-02-25T15:11:15.304Z,12.58
2019-02-25T15:13:45.808Z,12.55
2019-02-25T15:16:16.099Z,12.51
2019-02-25T15:18:47.754Z,12.37
2019-02-25T15:21:18.033Z,12.22
2019-02-25T15:23:48.350Z,12.01
2019-02-25T15:26:19.868Z,12.12
2019-02-25T15:28:53.654Z,11.99
2019-02-25T15:31:23.387Z,11.98
2019-02-25T15:33:53.661Z,11.76
2019-02-25T15:36:24.749Z,11.73
2019-02-25T15:38:56.224Z,11.68
2019-02-25T15:41:26.503Z,11.47
2019-02-25T15:44:40.371Z,11.42
2019-02-25T15:47:12.862Z,11.24
2019-02-25T15:49:43.355Z,11.07
2019-02-25T15:52:16.552Z,10.92
2019-02-25T15:54:45.731Z,10.79
2019-02-25T15:57:15.971Z,10.66
2019-02-25T15:59:46.306Z,10.51
2019-02-25T16:02:16.627Z,10.43
2019-02-25T16:04:48.881Z,10.35
2019-02-25T16:07:19.295Z,10.28
2019-02-25T16:09:49.536Z,10.14
2019-02-25T16:12:23.193Z,10.07
2019-02-25T16:14:53.118Z,10.02
2019-02-25T16:17:24.347Z,9.82
2019-02-25T16:19:55.065Z,9.71
2019-02-25T16:22:26.234Z,9.59
2019-02-25T16:24:59.046Z,9.50
2019-02-25T16:27:30.644Z,9.36
2019-02-25T16:30:02.917Z,9.18
2019-02-25T16:32:34.041Z,9.08
2019-02-25T16:35:07.252Z,8.96
2019-02-25T16:37:40.038Z,8.83
2019-02-25T16:40:18.250Z,8.72
2019-02-25T16:46:16.201Z,8.63
2019-02-25T16:48:48.379Z,8.51
2019-02-25T16:51:19.063Z,8.62
2019-02-25T16:53:51.849Z,8.57
2019-02-25T16:56:22.147Z,8.44
2019-02-25T16:58:54.329Z,8.30
2019-02-25T17:01:26.192Z,8.29
2019-02-25T17:03:57.154Z,8.32
2019-02-25T17:06:30.388Z,8.18
2019-02-25T17:09:02.208Z,8.15
2019-02-25T17:11:35.305Z,8.21
2019-02-25T17:14:06.125Z,8.28
2019-02-25T17:16:37.405Z,8.21
2019-02-25T17:19:08.864Z,8.22
2019-02-25T17:21:42.962Z,8.18
2019-02-25T17:24:12.669Z,8.22
2019-02-25T17:26:43.306Z,8.23
2019-02-25T17:29:13.733Z,8.12
2019-02-25T17:31:44.027Z,8.05
2019-02-25T17:34:16.484Z,7.94
2019-02-25T17:36:50.112Z,7.90
2019-02-25T17:39:20.178Z,7.86
2019-02-25T17:41:50.429Z,7.78
2019-02-25T17:44:23.378Z,7.81
2019-02-25T17:46:52.722Z,7.83
2019-02-25T17:49:26.126Z,7.84
2019-02-25T17:51:59.798Z,7.87
2019-02-25T17:54:33.350Z,7.82
2019-02-25T17:57:04.955Z,7.75
2019-02-25T17:59:35.602Z,7.78
2019-02-25T18:02:06.672Z,7.69
2019-02-25T18:04:37.901Z,7.63
2019-02-25T18:07:08.196Z,7.69
2019-02-25T18:09:40.140Z,7.58
2019-02-25T18:12:10.804Z,7.59
2019-02-25T18:14:43.078Z,7.46
2019-02-25T18:17:15.360Z,7.55
2019-02-25T18:19:47.667Z,7.47
2019-02-25T18:22:17.970Z,7.44
2019-02-25T18:24:48.509Z,7.33
2019-02-25T18:27:18.844Z,7.33
2019-02-25T18:29:50.382Z,7.27
2019-02-25T18:32:21.076Z,7.28
2019-02-25T18:34:52.132Z,7.22
2019-02-25T18:37:24.878Z,7.13
2019-02-25T18:39:56.524Z,7.09
2019-02-25T18:42:27.284Z,7.01
2019-02-25T18:44:58.711Z,6.97
2019-02-25T18:47:28.953Z,6.92
2019-02-25T18:50:00.951Z,6.95
2019-02-25T18:52:38.523Z,6.98
2019-02-25T18:55:12.010Z,6.96
2019-02-25T18:57:43.830Z,6.88
2019-02-25T19:00:24.097Z,6.91
2019-02-25T19:02:56.064Z,6.93
2019-02-25T19:05:27.176Z,6.99
2019-02-25T19:07:58.552Z,7.02
2019-02-25T19:10:28.951Z,7.08
2019-02-25T19:13:01.007Z,7.06
2019-02-25T19:15:31.224Z,7.10
2019-02-25T19:18:01.451Z,6.98
2019-02-25T19:20:32.811Z,7.02
2019-02-25T19:23:04.859Z,6.98
2019-02-25T19:25:36.143Z,6.88
2019-02-25T19:28:06.703Z,6.94
2019-02-25T19:30:37.042Z,6.92
2019-02-25T19:33:11.397Z,6.87
2019-02-25T19:35:40.981Z,6.88
2019-02-25T19:38:13.433Z,6.88
2019-02-25T19:40:45.891Z,6.70
2019-02-25T19:43:15.682Z,6.65
2019-02-25T19:45:46.269Z,6.58
2019-02-25T19:48:19.868Z,6.54
2019-02-25T19:50:53.894Z,6.71
2019-02-25T19:53:23.736Z,6.64
2019-02-25T19:55:54.611Z,6.83
2019-02-25T19:58:26.783Z,6.71
2019-02-25T20:01:01.016Z,6.68
2019-02-25T20:03:31.005Z,6.71
2019-02-25T20:06:02.087Z,6.70
2019-02-25T20:08:33.457Z,6.82
2019-02-25T20:11:04.511Z,6.70
2019-02-25T20:13:34.849Z,6.74
2019-02-25T20:16:07.915Z,6.69
2019-02-25T20:18:40.266Z,6.67
2019-02-25T20:21:13.915Z,6.69
2019-02-25T20:23:49.189Z,6.71
2019-02-25T20:26:22.335Z,6.70
2019-02-25T20:28:52.937Z,6.65
2019-02-25T20:31:23.460Z,6.59
2019-02-25T20:33:55.283Z,6.76
2019-02-25T20:36:26.334Z,6.80
2019-02-25T20:46:40.863Z,6.67
2019-02-25T20:49:16.114Z,6.68
2019-02-25T20:51:45.513Z,6.64
2019-02-25T20:54:18.506Z,6.54
2019-02-25T20:56:51.195Z,6.53
2019-02-25T20:59:24.006Z,6.55
2019-02-25T21:01:56.787Z,6.50
2019-02-25T21:04:28.660Z,6.52
2019-02-25T21:07:02.256Z,6.53
2019-02-25T21:09:34.053Z,6.54
2019-02-25T21:12:05.730Z,6.53
2019-02-25T21:14:37.888Z,6.60
2019-02-25T21:17:08.035Z,6.62
2019-02-25T21:19:39.941Z,6.67
2019-02-25T21:22:10.359Z,6.67
2019-02-25T21:24:40.693Z,6.89
2019-02-25T21:27:11.003Z,6.85
2019-02-25T21:29:41.338Z,6.87
2019-02-25T21:32:15.303Z,6.94
2019-02-25T21:34:46.192Z,6.89
2019-02-25T21:37:15.599Z,6.94
2019-02-25T21:39:46.709Z,7.03
2019-02-25T21:42:19.197Z,7.11
2019-02-25T21:44:52.423Z,7.29
2019-02-25T21:47:24.301Z,7.42
2019-02-25T21:49:59.198Z,7.49
2019-02-25T21:52:32.808Z,7.55
2019-02-25T21:55:06.526Z,7.61
2019-02-25T21:57:37.697Z,7.74
2019-02-25T22:00:11.314Z,7.87
2019-02-25T22:02:44.035Z,7.87
2019-02-25T22:05:16.698Z,7.91
2019-02-25T22:07:49.914Z,7.91
2019-02-25T22:10:19.659Z,7.92
2019-02-25T22:12:49.978Z,7.91
2019-02-25T22:15:22.434Z,7.90
2019-02-25T22:17:53.454Z,8.10
2019-02-25T22:20:25.156Z,8.08
2019-02-25T22:22:57.458Z,8.00
2019-02-25T22:25:29.035Z,7.96
2019-02-25T22:28:01.126Z,7.92
2019-02-25T22:30:32.097Z,7.93
2019-02-25T22:33:04.463Z,7.92
2019-02-25T22:35:37.391Z,8.02
2019-02-25T22:38:06.397Z,8.05
2019-02-25T22:40:38.838Z,8.04
2019-02-25T22:43:10.049Z,7.97
2019-02-25T22:45:41.998Z,7.95
2019-02-25T22:48:14.069Z,7.89
2019-02-25T22:50:44.498Z,8.02
2019-02-25T22:53:14.784Z,7.97
2019-02-25T22:55:47.305Z,7.94
2019-02-25T22:58:18.736Z,7.88
2019-02-25T23:00:51.883Z,7.97
2019-02-25T23:03:24.904Z,8.02
2019-02-25T23:05:55.219Z,7.98
2019-02-25T23:08:26.101Z,8.01
2019-02-25T23:10:56.475Z,8.05
2019-02-25T23:13:29.323Z,8.07
2019-02-25T23:15:58.709Z,8.12
2019-02-25T23:18:28.959Z,8.08
2019-02-25T23:24:59.043Z,8.02
2019-02-25T23:27:30.120Z,8.04
2019-02-25T23:30:01.512Z,8.02
2019-02-25T23:32:31.942Z,8.01
2019-02-25T23:35:02.275Z,8.02
2019-02-25T23:37:32.653Z,7.95
2019-02-25T23:40:05.142Z,7.93
2019-02-25T23:42:37.307Z,7.90
2019-02-25T23:45:13.452Z,7.86
2019-02-25T23:47:44.778Z,7.84
2019-02-25T23:50:15.318Z,7.88
2019-02-25T23:52:47.197Z,7.86
2019-02-25T23:55:19.627Z,7.88
2019-02-25T23:57:49.545Z,7.89
